sensor_id;sensor_type;location;lat;lon;timestamp;P1;durP1;ratioP1;P2;durP2;ratioP2
1382;SDS011;685;47.196;11.880;2023-05-07T00:00:39;3.53;;;2.20;;
1382;SDS011;685;47.196;11.880;2023-05-07T00:03:08;2.37;;;1.63;;
1382;SDS011;685;47.196;11.880;2023-05-07T00:05:36;3.07;;;1.90;;
1382;SDS011;685;47.196;11.880;2023-05-07T00:08:04;3.00;;;2.13;;
1382;SDS011;685;47.196;11.880;2023-05-07T00:10:31;3.00;;;2.27;;
1382;SDS011;685;47.196;11.880;2023-05-07T00:12:58;2.70;;;1.77;;
1382;SDS011;685;47.196;11.880;2023-05-07T00:15:25;3.53;;;2.60;;
1382;SDS011;685;47.196;11.880;2023-05-07T00:17:53;2.50;;;1.83;;
1382;SDS011;685;47.196;11.880;2023-05-07T00:20:21;3.00;;;1.90;;
1382;SDS011;685;47.196;11.880;2023-05-07T00:22:48;2.10;;;1.90;;
1382;SDS011;685;47.196;11.880;2023-05-07T00:25:15;2.00;;;1.80;;
1382;SDS011;685;47.196;11.880;2023-05-07T00:27:42;2.30;;;1.97;;
1382;SDS011;685;47.196;11.880;2023-05-07T00:30:09;2.10;;;1.90;;
1382;SDS011;685;47.196;11.880;2023-05-07T00:32:36;2.37;;;1.87;;
1382;SDS011;685;47.196;11.880;2023-05-07T00:35:04;2.43;;;1.73;;
1382;SDS011;685;47.196;11.880;2023-05-07T00:37:33;3.63;;;2.27;;
1382;SDS011;685;47.196;11.880;2023-05-07T00:40:00;2.03;;;1.83;;
1382;SDS011;685;47.196;11.880;2023-05-07T00:42:29;2.40;;;1.77;;
1382;SDS011;685;47.196;11.880;2023-05-07T00:44:57;3.00;;;2.33;;
1382;SDS011;685;47.196;11.880;2023-05-07T00:47:24;2.87;;;2.00;;
1382;SDS011;685;47.196;11.880;2023-05-07T00:49:51;2.50;;;2.30;;
1382;SDS011;685;47.196;11.880;2023-05-07T00:52:19;3.60;;;2.10;;
1382;SDS011;685;47.196;11.880;2023-05-07T00:54:48;3.93;;;1.80;;
1382;SDS011;685;47.196;11.880;2023-05-07T00:57:15;3.30;;;1.50;;
1382;SDS011;685;47.196;11.880;2023-05-07T00:59:42;3.03;;;2.03;;
1382;SDS011;685;47.196;11.880;2023-05-07T01:02:09;2.50;;;1.83;;
1382;SDS011;685;47.196;11.880;2023-05-07T01:04:36;2.67;;;2.37;;
1382;SDS011;685;47.196;11.880;2023-05-07T01:07:03;2.73;;;2.27;;
1382;SDS011;685;47.196;11.880;2023-05-07T01:09:31;2.80;;;2.03;;
1382;SDS011;685;47.196;11.880;2023-05-07T01:12:01;1.93;;;1.80;;
1382;SDS011;685;47.196;11.880;2023-05-07T01:14:29;2.63;;;1.70;;
1382;SDS011;685;47.196;11.880;2023-05-07T01:17:03;3.30;;;1.93;;
1382;SDS011;685;47.196;11.880;2023-05-07T01:19:31;2.40;;;2.20;;
1382;SDS011;685;47.196;11.880;2023-05-07T01:22:01;3.00;;;1.70;;
1382;SDS011;685;47.196;11.880;2023-05-07T01:24:31;1.93;;;1.57;;
1382;SDS011;685;47.196;11.880;2023-05-07T01:26:59;1.87;;;1.60;;
1382;SDS011;685;47.196;11.880;2023-05-07T01:29:27;1.97;;;1.50;;
1382;SDS011;685;47.196;11.880;2023-05-07T01:31:54;1.63;;;1.50;;
1382;SDS011;685;47.196;11.880;2023-05-07T01:34:23;2.03;;;1.80;;
1382;SDS011;685;47.196;11.880;2023-05-07T01:36:52;2.40;;;1.97;;
1382;SDS011;685;47.196;11.880;2023-05-07T01:39:20;4.10;;;2.60;;
1382;SDS011;685;47.196;11.880;2023-05-07T01:41:49;3.73;;;2.10;;
1382;SDS011;685;47.196;11.880;2023-05-07T01:44:16;2.87;;;2.00;;
1382;SDS011;685;47.196;11.880;2023-05-07T01:46:45;2.70;;;2.23;;
1382;SDS011;685;47.196;11.880;2023-05-07T01:49:14;3.37;;;2.00;;
1382;SDS011;685;47.196;11.880;2023-05-07T01:51:41;3.30;;;1.90;;
1382;SDS011;685;47.196;11.880;2023-05-07T01:54:09;3.03;;;2.07;;
1382;SDS011;685;47.196;11.880;2023-05-07T01:56:36;2.00;;;1.67;;
1382;SDS011;685;47.196;11.880;2023-05-07T01:59:04;2.40;;;2.10;;
1382;SDS011;685;47.196;11.880;2023-05-07T02:01:31;3.47;;;2.07;;
1382;SDS011;685;47.196;11.880;2023-05-07T02:03:58;3.33;;;2.80;;
1382;SDS011;685;47.196;11.880;2023-05-07T02:06:25;3.90;;;2.70;;
1382;SDS011;685;47.196;11.880;2023-05-07T02:08:52;5.07;;;2.67;;
1382;SDS011;685;47.196;11.880;2023-05-07T02:11:19;3.30;;;2.40;;
1382;SDS011;685;47.196;11.880;2023-05-07T02:13:46;3.00;;;2.37;;
1382;SDS011;685;47.196;11.880;2023-05-07T02:16:14;2.23;;;2.03;;
1382;SDS011;685;47.196;11.880;2023-05-07T02:18:41;3.33;;;2.17;;
1382;SDS011;685;47.196;11.880;2023-05-07T02:21:08;3.40;;;2.00;;
1382;SDS011;685;47.196;11.880;2023-05-07T02:23:34;3.30;;;2.37;;
1382;SDS011;685;47.196;11.880;2023-05-07T02:26:01;5.37;;;2.87;;
1382;SDS011;685;47.196;11.880;2023-05-07T02:28:29;2.87;;;2.53;;
1382;SDS011;685;47.196;11.880;2023-05-07T02:30:56;2.77;;;2.37;;
1382;SDS011;685;47.196;11.880;2023-05-07T02:33:26;2.77;;;2.57;;
1382;SDS011;685;47.196;11.880;2023-05-07T02:35:53;2.50;;;2.30;;
1382;SDS011;685;47.196;11.880;2023-05-07T02:38:22;2.80;;;2.20;;
1382;SDS011;685;47.196;11.880;2023-05-07T02:40:49;3.00;;;2.57;;
1382;SDS011;685;47.196;11.880;2023-05-07T02:43:16;2.27;;;2.07;;
1382;SDS011;685;47.196;11.880;2023-05-07T02:45:42;3.00;;;1.67;;
1382;SDS011;685;47.196;11.880;2023-05-07T02:48:09;2.90;;;2.60;;
1382;SDS011;685;47.196;11.880;2023-05-07T02:50:37;2.50;;;1.90;;
1382;SDS011;685;47.196;11.880;2023-05-07T02:53:04;3.10;;;2.40;;
1382;SDS011;685;47.196;11.880;2023-05-07T02:55:31;2.87;;;1.80;;
1382;SDS011;685;47.196;11.880;2023-05-07T02:57:58;4.23;;;2.07;;
1382;SDS011;685;47.196;11.880;2023-05-07T03:00:25;1.77;;;1.63;;
1382;SDS011;685;47.196;11.880;2023-05-07T03:02:52;2.20;;;2.00;;
1382;SDS011;685;47.196;11.880;2023-05-07T03:05:19;4.07;;;2.07;;
1382;SDS011;685;47.196;11.880;2023-05-07T03:07:47;4.10;;;2.10;;
1382;SDS011;685;47.196;11.880;2023-05-07T03:10:14;2.60;;;2.40;;
1382;SDS011;685;47.196;11.880;2023-05-07T03:12:41;4.07;;;3.00;;
1382;SDS011;685;47.196;11.880;2023-05-07T03:15:09;3.33;;;2.47;;
1382;SDS011;685;47.196;11.880;2023-05-07T03:17:36;4.50;;;2.57;;
1382;SDS011;685;47.196;11.880;2023-05-07T03:20:03;3.73;;;2.60;;
1382;SDS011;685;47.196;11.880;2023-05-07T03:22:32;3.37;;;2.40;;
1382;SDS011;685;47.196;11.880;2023-05-07T03:25:00;3.67;;;2.60;;
1382;SDS011;685;47.196;11.880;2023-05-07T03:27:27;3.33;;;2.00;;
1382;SDS011;685;47.196;11.880;2023-05-07T03:29:54;2.07;;;1.87;;
1382;SDS011;685;47.196;11.880;2023-05-07T03:32:20;2.27;;;2.07;;
1382;SDS011;685;47.196;11.880;2023-05-07T03:34:47;1.97;;;1.57;;
1382;SDS011;685;47.196;11.880;2023-05-07T03:37:14;4.30;;;2.57;;
1382;SDS011;685;47.196;11.880;2023-05-07T03:39:41;3.40;;;2.97;;
1382;SDS011;685;47.196;11.880;2023-05-07T03:42:10;2.13;;;1.50;;
1382;SDS011;685;47.196;11.880;2023-05-07T03:44:37;2.87;;;2.00;;
1382;SDS011;685;47.196;11.880;2023-05-07T03:47:04;2.17;;;1.97;;
1382;SDS011;685;47.196;11.880;2023-05-07T03:49:31;4.03;;;2.00;;
1382;SDS011;685;47.196;11.880;2023-05-07T03:51:57;3.83;;;2.03;;
1382;SDS011;685;47.196;11.880;2023-05-07T03:54:24;3.80;;;2.10;;
1382;SDS011;685;47.196;11.880;2023-05-07T03:56:51;2.40;;;2.10;;
1382;SDS011;685;47.196;11.880;2023-05-07T03:59:19;3.77;;;3.47;;
1382;SDS011;685;47.196;11.880;2023-05-07T04:01:46;2.20;;;1.73;;
1382;SDS011;685;47.196;11.880;2023-05-07T04:04:13;2.00;;;1.60;;
1382;SDS011;685;47.196;11.880;2023-05-07T04:06:40;2.60;;;1.80;;
1382;SDS011;685;47.196;11.880;2023-05-07T04:09:07;3.27;;;2.07;;
1382;SDS011;685;47.196;11.880;2023-05-07T04:11:34;1.97;;;1.80;;
1382;SDS011;685;47.196;11.880;2023-05-07T04:14:02;3.00;;;2.07;;
1382;SDS011;685;47.196;11.880;2023-05-07T04:16:30;2.37;;;2.17;;
1382;SDS011;685;47.196;11.880;2023-05-07T04:18:57;4.60;;;2.70;;
1382;SDS011;685;47.196;11.880;2023-05-07T04:21:24;3.67;;;2.50;;
1382;SDS011;685;47.196;11.880;2023-05-07T04:23:51;3.40;;;2.57;;
1382;SDS011;685;47.196;11.880;2023-05-07T04:26:18;6.93;;;2.60;;
1382;SDS011;685;47.196;11.880;2023-05-07T04:28:46;5.37;;;2.10;;
1382;SDS011;685;47.196;11.880;2023-05-07T04:31:13;2.77;;;2.00;;
1382;SDS011;685;47.196;11.880;2023-05-07T04:33:41;2.27;;;2.07;;
1382;SDS011;685;47.196;11.880;2023-05-07T04:36:08;2.07;;;1.83;;
1382;SDS011;685;47.196;11.880;2023-05-07T04:38:35;2.10;;;1.90;;
1382;SDS011;685;47.196;11.880;2023-05-07T04:41:04;3.27;;;2.43;;
1382;SDS011;685;47.196;11.880;2023-05-07T04:43:32;2.87;;;1.90;;
1382;SDS011;685;47.196;11.880;2023-05-07T04:45:59;3.50;;;1.97;;
1382;SDS011;685;47.196;11.880;2023-05-07T04:48:26;3.37;;;3.07;;
1382;SDS011;685;47.196;11.880;2023-05-07T04:50:55;3.33;;;2.77;;
1382;SDS011;685;47.196;11.880;2023-05-07T04:53:22;4.27;;;2.40;;
1382;SDS011;685;47.196;11.880;2023-05-07T04:55:54;3.63;;;2.00;;
1382;SDS011;685;47.196;11.880;2023-05-07T04:58:21;5.83;;;2.50;;
1382;SDS011;685;47.196;11.880;2023-05-07T05:00:48;2.53;;;1.80;;
1382;SDS011;685;47.196;11.880;2023-05-07T05:03:15;2.60;;;2.33;;
1382;SDS011;685;47.196;11.880;2023-05-07T05:05:42;4.10;;;2.60;;
1382;SDS011;685;47.196;11.880;2023-05-07T05:08:11;3.00;;;2.20;;
1382;SDS011;685;47.196;11.880;2023-05-07T05:10:38;3.23;;;2.33;;
1382;SDS011;685;47.196;11.880;2023-05-07T05:13:06;4.23;;;3.63;;
1382;SDS011;685;47.196;11.880;2023-05-07T05:15:33;3.00;;;2.67;;
1382;SDS011;685;47.196;11.880;2023-05-07T05:18:00;2.70;;;2.33;;
1382;SDS011;685;47.196;11.880;2023-05-07T05:20:26;3.50;;;2.30;;
1382;SDS011;685;47.196;11.880;2023-05-07T05:22:53;2.50;;;2.30;;
1382;SDS011;685;47.196;11.880;2023-05-07T05:25:22;4.20;;;1.87;;
1382;SDS011;685;47.196;11.880;2023-05-07T05:27:48;3.90;;;2.50;;
1382;SDS011;685;47.196;11.880;2023-05-07T05:30:15;3.00;;;2.70;;
1382;SDS011;685;47.196;11.880;2023-05-07T05:32:42;3.30;;;2.70;;
1382;SDS011;685;47.196;11.880;2023-05-07T05:35:09;4.47;;;2.77;;
1382;SDS011;685;47.196;11.880;2023-05-07T05:37:36;7.47;;;3.50;;
1382;SDS011;685;47.196;11.880;2023-05-07T05:40:03;4.40;;;3.27;;
1382;SDS011;685;47.196;11.880;2023-05-07T05:42:32;3.70;;;3.30;;
1382;SDS011;685;47.196;11.880;2023-05-07T05:44:59;3.50;;;3.20;;
1382;SDS011;685;47.196;11.880;2023-05-07T05:47:26;4.27;;;3.00;;
1382;SDS011;685;47.196;11.880;2023-05-07T05:49:53;3.67;;;3.17;;
1382;SDS011;685;47.196;11.880;2023-05-07T05:52:19;4.90;;;3.37;;
1382;SDS011;685;47.196;11.880;2023-05-07T05:54:48;4.23;;;3.47;;
1382;SDS011;685;47.196;11.880;2023-05-07T05:57:15;4.33;;;3.57;;
1382;SDS011;685;47.196;11.880;2023-05-07T05:59:44;5.70;;;5.10;;
1382;SDS011;685;47.196;11.880;2023-05-07T06:02:12;6.10;;;4.67;;
1382;SDS011;685;47.196;11.880;2023-05-07T06:04:39;6.43;;;3.83;;
1382;SDS011;685;47.196;11.880;2023-05-07T06:07:07;4.30;;;3.40;;
1382;SDS011;685;47.196;11.880;2023-05-07T06:09:34;3.40;;;3.10;;
1382;SDS011;685;47.196;11.880;2023-05-07T06:12:01;3.77;;;3.00;;
1382;SDS011;685;47.196;11.880;2023-05-07T06:14:28;3.10;;;2.80;;
1382;SDS011;685;47.196;11.880;2023-05-07T06:16:56;3.50;;;3.20;;
1382;SDS011;685;47.196;11.880;2023-05-07T06:19:23;3.60;;;2.80;;
1382;SDS011;685;47.196;11.880;2023-05-07T06:21:51;2.60;;;2.30;;
1382;SDS011;685;47.196;11.880;2023-05-07T06:24:18;4.57;;;3.57;;
1382;SDS011;685;47.196;11.880;2023-05-07T06:26:45;6.00;;;2.47;;
1382;SDS011;685;47.196;11.880;2023-05-07T06:29:12;2.70;;;2.10;;
1382;SDS011;685;47.196;11.880;2023-05-07T06:31:39;2.97;;;2.10;;
1382;SDS011;685;47.196;11.880;2023-05-07T06:34:07;5.23;;;2.37;;
1382;SDS011;685;47.196;11.880;2023-05-07T06:36:34;3.60;;;2.27;;
1382;SDS011;685;47.196;11.880;2023-05-07T06:39:01;4.20;;;2.73;;
1382;SDS011;685;47.196;11.880;2023-05-07T06:41:28;4.67;;;2.73;;
1382;SDS011;685;47.196;11.880;2023-05-07T06:43:55;3.47;;;2.43;;
1382;SDS011;685;47.196;11.880;2023-05-07T06:46:22;2.63;;;2.43;;
1382;SDS011;685;47.196;11.880;2023-05-07T06:48:49;6.17;;;2.70;;
1382;SDS011;685;47.196;11.880;2023-05-07T06:51:17;2.77;;;2.47;;
1382;SDS011;685;47.196;11.880;2023-05-07T06:53:44;3.43;;;1.63;;
1382;SDS011;685;47.196;11.880;2023-05-07T06:56:11;2.50;;;2.23;;
1382;SDS011;685;47.196;11.880;2023-05-07T06:58:37;3.30;;;2.27;;
1382;SDS011;685;47.196;11.880;2023-05-07T07:01:05;4.00;;;2.30;;
1382;SDS011;685;47.196;11.880;2023-05-07T07:03:31;3.27;;;2.10;;
1382;SDS011;685;47.196;11.880;2023-05-07T07:05:58;2.50;;;1.77;;
1382;SDS011;685;47.196;11.880;2023-05-07T07:08:28;4.07;;;2.27;;
1382;SDS011;685;47.196;11.880;2023-05-07T07:10:55;2.50;;;2.30;;
1382;SDS011;685;47.196;11.880;2023-05-07T07:13:22;3.20;;;2.37;;
1382;SDS011;685;47.196;11.880;2023-05-07T07:15:49;2.67;;;2.47;;
1382;SDS011;685;47.196;11.880;2023-05-07T07:18:16;2.30;;;1.97;;
1382;SDS011;685;47.196;11.880;2023-05-07T07:20:42;2.60;;;2.10;;
1382;SDS011;685;47.196;11.880;2023-05-07T07:23:10;2.70;;;1.90;;
1382;SDS011;685;47.196;11.880;2023-05-07T07:25:38;2.33;;;1.87;;
1382;SDS011;685;47.196;11.880;2023-05-07T07:28:05;2.90;;;1.87;;
1382;SDS011;685;47.196;11.880;2023-05-07T07:30:32;3.50;;;1.90;;
1382;SDS011;685;47.196;11.880;2023-05-07T07:32:59;2.17;;;1.87;;
1382;SDS011;685;47.196;11.880;2023-05-07T07:35:28;2.77;;;2.57;;
1382;SDS011;685;47.196;11.880;2023-05-07T07:37:55;2.40;;;1.93;;
1382;SDS011;685;47.196;11.880;2023-05-07T07:40:22;3.70;;;2.63;;
1382;SDS011;685;47.196;11.880;2023-05-07T07:42:50;2.43;;;2.23;;
1382;SDS011;685;47.196;11.880;2023-05-07T07:45:17;2.80;;;1.90;;
1382;SDS011;685;47.196;11.880;2023-05-07T07:47:44;3.20;;;1.70;;
1382;SDS011;685;47.196;11.880;2023-05-07T07:50:11;2.90;;;1.53;;
1382;SDS011;685;47.196;11.880;2023-05-07T07:52:38;1.70;;;1.50;;
1382;SDS011;685;47.196;11.880;2023-05-07T07:55:06;2.33;;;1.90;;
1382;SDS011;685;47.196;11.880;2023-05-07T07:57:33;2.17;;;1.73;;
1382;SDS011;685;47.196;11.880;2023-05-07T08:00:02;4.27;;;2.20;;
1382;SDS011;685;47.196;11.880;2023-05-07T08:02:29;2.23;;;1.70;;
1382;SDS011;685;47.196;11.880;2023-05-07T08:04:56;2.70;;;1.90;;
1382;SDS011;685;47.196;11.880;2023-05-07T08:07:23;2.40;;;2.00;;
1382;SDS011;685;47.196;11.880;2023-05-07T08:09:50;2.60;;;2.40;;
1382;SDS011;685;47.196;11.880;2023-05-07T08:12:17;2.07;;;1.77;;
1382;SDS011;685;47.196;11.880;2023-05-07T08:14:44;2.00;;;1.80;;
1382;SDS011;685;47.196;11.880;2023-05-07T08:17:12;2.87;;;2.27;;
1382;SDS011;685;47.196;11.880;2023-05-07T08:19:40;2.63;;;1.70;;
1382;SDS011;685;47.196;11.880;2023-05-07T08:22:07;2.23;;;1.70;;
1382;SDS011;685;47.196;11.880;2023-05-07T08:24:35;2.10;;;1.90;;
1382;SDS011;685;47.196;11.880;2023-05-07T08:27:02;3.00;;;1.77;;
1382;SDS011;685;47.196;11.880;2023-05-07T08:29:29;2.90;;;1.90;;
1382;SDS011;685;47.196;11.880;2023-05-07T08:31:56;1.80;;;1.70;;
1382;SDS011;685;47.196;11.880;2023-05-07T08:34:24;2.63;;;1.63;;
1382;SDS011;685;47.196;11.880;2023-05-07T08:36:51;1.70;;;1.47;;
1382;SDS011;685;47.196;11.880;2023-05-07T08:39:18;2.00;;;1.60;;
1382;SDS011;685;47.196;11.880;2023-05-07T08:41:45;2.70;;;1.73;;
1382;SDS011;685;47.196;11.880;2023-05-07T08:44:13;2.27;;;1.80;;
1382;SDS011;685;47.196;11.880;2023-05-07T08:46:41;1.70;;;1.40;;
1382;SDS011;685;47.196;11.880;2023-05-07T08:49:08;2.40;;;1.97;;
1382;SDS011;685;47.196;11.880;2023-05-07T08:51:36;3.87;;;1.90;;
1382;SDS011;685;47.196;11.880;2023-05-07T08:54:04;2.13;;;1.93;;
1382;SDS011;685;47.196;11.880;2023-05-07T08:56:32;2.77;;;2.00;;
1382;SDS011;685;47.196;11.880;2023-05-07T08:58:59;3.27;;;1.70;;
1382;SDS011;685;47.196;11.880;2023-05-07T09:01:26;2.53;;;1.93;;
1382;SDS011;685;47.196;11.880;2023-05-07T09:03:53;2.87;;;1.87;;
1382;SDS011;685;47.196;11.880;2023-05-07T09:06:20;2.40;;;1.83;;
1382;SDS011;685;47.196;11.880;2023-05-07T09:08:52;1.83;;;1.70;;
1382;SDS011;685;47.196;11.880;2023-05-07T09:11:20;3.53;;;2.10;;
1382;SDS011;685;47.196;11.880;2023-05-07T09:13:48;3.20;;;1.83;;
1382;SDS011;685;47.196;11.880;2023-05-07T09:16:15;2.30;;;2.10;;
1382;SDS011;685;47.196;11.880;2023-05-07T09:18:42;4.10;;;1.90;;
1382;SDS011;685;47.196;11.880;2023-05-07T09:21:10;2.43;;;1.80;;
1382;SDS011;685;47.196;11.880;2023-05-07T09:23:37;2.00;;;1.60;;
1382;SDS011;685;47.196;11.880;2023-05-07T09:26:06;2.20;;;2.00;;
1382;SDS011;685;47.196;11.880;2023-05-07T09:28:37;3.00;;;2.10;;
1382;SDS011;685;47.196;11.880;2023-05-07T09:31:06;2.03;;;1.47;;
1382;SDS011;685;47.196;11.880;2023-05-07T09:33:33;2.40;;;1.80;;
1382;SDS011;685;47.196;11.880;2023-05-07T09:36:02;3.03;;;2.03;;
1382;SDS011;685;47.196;11.880;2023-05-07T09:38:30;2.10;;;1.70;;
1382;SDS011;685;47.196;11.880;2023-05-07T09:41:08;2.10;;;1.90;;
1382;SDS011;685;47.196;11.880;2023-05-07T09:43:37;2.40;;;1.50;;
1382;SDS011;685;47.196;11.880;2023-05-07T09:46:06;2.47;;;2.27;;
1382;SDS011;685;47.196;11.880;2023-05-07T09:48:37;2.27;;;1.70;;
1382;SDS011;685;47.196;11.880;2023-05-07T09:51:06;6.13;;;1.70;;
1382;SDS011;685;47.196;11.880;2023-05-07T09:53:40;3.50;;;2.20;;
1382;SDS011;685;47.196;11.880;2023-05-07T09:56:12;2.10;;;1.50;;
1382;SDS011;685;47.196;11.880;2023-05-07T09:58:41;1.50;;;1.40;;
1382;SDS011;685;47.196;11.880;2023-05-07T10:01:10;4.67;;;2.10;;
1382;SDS011;685;47.196;11.880;2023-05-07T10:03:39;2.47;;;1.43;;
1382;SDS011;685;47.196;11.880;2023-05-07T10:06:08;2.33;;;1.80;;
1382;SDS011;685;47.196;11.880;2023-05-07T10:08:36;2.77;;;1.30;;
1382;SDS011;685;47.196;11.880;2023-05-07T10:11:03;1.87;;;1.50;;
1382;SDS011;685;47.196;11.880;2023-05-07T10:13:33;2.03;;;1.60;;
1382;SDS011;685;47.196;11.880;2023-05-07T10:16:02;2.33;;;1.70;;
1382;SDS011;685;47.196;11.880;2023-05-07T10:18:30;2.90;;;1.80;;
1382;SDS011;685;47.196;11.880;2023-05-07T10:21:00;2.90;;;2.10;;
1382;SDS011;685;47.196;11.880;2023-05-07T10:23:33;2.40;;;1.70;;
1382;SDS011;685;47.196;11.880;2023-05-07T10:26:00;2.10;;;1.73;;
1382;SDS011;685;47.196;11.880;2023-05-07T10:28:30;2.50;;;1.80;;
1382;SDS011;685;47.196;11.880;2023-05-07T10:31:06;1.70;;;1.10;;
1382;SDS011;685;47.196;11.880;2023-05-07T10:33:40;1.70;;;1.30;;
1382;SDS011;685;47.196;11.880;2023-05-07T10:36:11;1.97;;;1.47;;
1382;SDS011;685;47.196;11.880;2023-05-07T10:38:38;1.83;;;1.27;;
1382;SDS011;685;47.196;11.880;2023-05-07T10:41:05;1.70;;;1.13;;
1382;SDS011;685;47.196;11.880;2023-05-07T10:43:43;1.80;;;1.43;;
1382;SDS011;685;47.196;11.880;2023-05-07T10:46:13;2.67;;;1.80;;
1382;SDS011;685;47.196;11.880;2023-05-07T10:51:40;1.33;;;1.00;;
1382;SDS011;685;47.196;11.880;2023-05-07T10:54:22;2.40;;;1.80;;
1382;SDS011;685;47.196;11.880;2023-05-07T10:56:49;2.10;;;1.60;;
1382;SDS011;685;47.196;11.880;2023-05-07T10:59:31;2.47;;;1.37;;
1382;SDS011;685;47.196;11.880;2023-05-07T11:02:06;1.40;;;1.20;;
1382;SDS011;685;47.196;11.880;2023-05-07T11:04:36;1.80;;;1.40;;
1382;SDS011;685;47.196;11.880;2023-05-07T11:10:04;2.20;;;1.30;;
1382;SDS011;685;47.196;11.880;2023-05-07T11:12:48;1.93;;;1.73;;
1382;SDS011;685;47.196;11.880;2023-05-07T11:18:01;2.00;;;1.50;;
1382;SDS011;685;47.196;11.880;2023-05-07T11:20:44;2.80;;;1.43;;
1382;SDS011;685;47.196;11.880;2023-05-07T11:26:12;3.20;;;1.30;;
1382;SDS011;685;47.196;11.880;2023-05-07T11:28:40;1.43;;;1.17;;
1382;SDS011;685;47.196;11.880;2023-05-07T11:31:10;4.27;;;1.70;;
1382;SDS011;685;47.196;11.880;2023-05-07T11:33:37;1.50;;;1.10;;
1382;SDS011;685;47.196;11.880;2023-05-07T11:36:04;1.70;;;1.30;;
1382;SDS011;685;47.196;11.880;2023-05-07T11:38:34;1.97;;;1.67;;
1382;SDS011;685;47.196;11.880;2023-05-07T11:41:02;2.63;;;1.50;;
1382;SDS011;685;47.196;11.880;2023-05-07T11:43:30;2.17;;;1.40;;
1382;SDS011;685;47.196;11.880;2023-05-07T11:46:04;1.93;;;1.63;;
1382;SDS011;685;47.196;11.880;2023-05-07T11:48:34;4.13;;;1.60;;
1382;SDS011;685;47.196;11.880;2023-05-07T11:51:02;2.43;;;1.83;;
1382;SDS011;685;47.196;11.880;2023-05-07T11:53:35;2.77;;;1.90;;
1382;SDS011;685;47.196;11.880;2023-05-07T11:56:05;2.03;;;1.60;;
1382;SDS011;685;47.196;11.880;2023-05-07T11:58:33;1.90;;;1.40;;
1382;SDS011;685;47.196;11.880;2023-05-07T12:01:00;2.50;;;2.07;;
1382;SDS011;685;47.196;11.880;2023-05-07T12:03:27;2.37;;;2.13;;
1382;SDS011;685;47.196;11.880;2023-05-07T12:05:55;2.80;;;1.90;;
1382;SDS011;685;47.196;11.880;2023-05-07T12:08:22;2.90;;;2.30;;
1382;SDS011;685;47.196;11.880;2023-05-07T12:10:49;2.90;;;2.57;;
1382;SDS011;685;47.196;11.880;2023-05-07T12:13:17;2.80;;;2.33;;
1382;SDS011;685;47.196;11.880;2023-05-07T12:15:45;2.40;;;1.73;;
1382;SDS011;685;47.196;11.880;2023-05-07T12:18:12;2.13;;;1.27;;
1382;SDS011;685;47.196;11.880;2023-05-07T12:20:39;1.80;;;1.47;;
1382;SDS011;685;47.196;11.880;2023-05-07T12:23:08;1.93;;;1.60;;
1382;SDS011;685;47.196;11.880;2023-05-07T12:25:35;3.00;;;1.70;;
1382;SDS011;685;47.196;11.880;2023-05-07T12:28:02;2.73;;;1.70;;
1382;SDS011;685;47.196;11.880;2023-05-07T12:30:30;2.47;;;1.67;;
1382;SDS011;685;47.196;11.880;2023-05-07T12:32:57;1.70;;;1.30;;
1382;SDS011;685;47.196;11.880;2023-05-07T12:35:27;1.67;;;1.40;;
1382;SDS011;685;47.196;11.880;2023-05-07T12:37:55;2.03;;;1.10;;
1382;SDS011;685;47.196;11.880;2023-05-07T12:40:34;2.47;;;1.60;;
1382;SDS011;685;47.196;11.880;2023-05-07T12:43:02;4.17;;;1.50;;
1382;SDS011;685;47.196;11.880;2023-05-07T12:45:28;1.77;;;1.30;;
1382;SDS011;685;47.196;11.880;2023-05-07T12:47:56;2.30;;;1.27;;
1382;SDS011;685;47.196;11.880;2023-05-07T12:50:30;2.13;;;1.70;;
1382;SDS011;685;47.196;11.880;2023-05-07T12:52:58;2.43;;;1.50;;
1382;SDS011;685;47.196;11.880;2023-05-07T12:55:26;1.60;;;1.30;;
1382;SDS011;685;47.196;11.880;2023-05-07T12:57:55;1.83;;;1.33;;
1382;SDS011;685;47.196;11.880;2023-05-07T13:00:35;1.77;;;1.17;;
1382;SDS011;685;47.196;11.880;2023-05-07T13:03:03;1.60;;;1.17;;
1382;SDS011;685;47.196;11.880;2023-05-07T13:05:30;1.87;;;1.60;;
1382;SDS011;685;47.196;11.880;2023-05-07T13:07:58;2.33;;;1.43;;
1382;SDS011;685;47.196;11.880;2023-05-07T13:10:26;1.80;;;1.47;;
1382;SDS011;685;47.196;11.880;2023-05-07T13:12:53;2.03;;;1.30;;
1382;SDS011;685;47.196;11.880;2023-05-07T13:15:20;3.40;;;1.70;;
1382;SDS011;685;47.196;11.880;2023-05-07T13:17:48;2.00;;;1.40;;
1382;SDS011;685;47.196;11.880;2023-05-07T13:20:15;2.00;;;1.70;;
1382;SDS011;685;47.196;11.880;2023-05-07T13:22:42;3.60;;;1.80;;
1382;SDS011;685;47.196;11.880;2023-05-07T13:25:09;2.23;;;1.50;;
1382;SDS011;685;47.196;11.880;2023-05-07T13:27:37;2.23;;;1.33;;
1382;SDS011;685;47.196;11.880;2023-05-07T13:30:05;1.67;;;1.23;;
1382;SDS011;685;47.196;11.880;2023-05-07T13:32:32;1.77;;;1.40;;
1382;SDS011;685;47.196;11.880;2023-05-07T13:35:00;1.90;;;1.30;;
1382;SDS011;685;47.196;11.880;2023-05-07T13:37:27;2.13;;;1.30;;
1382;SDS011;685;47.196;11.880;2023-05-07T13:39:54;1.63;;;1.33;;
1382;SDS011;685;47.196;11.880;2023-05-07T13:42:21;2.00;;;1.20;;
1382;SDS011;685;47.196;11.880;2023-05-07T13:44:49;1.90;;;1.40;;
1382;SDS011;685;47.196;11.880;2023-05-07T13:47:16;3.50;;;1.30;;
1382;SDS011;685;47.196;11.880;2023-05-07T13:49:43;4.40;;;1.20;;
1382;SDS011;685;47.196;11.880;2023-05-07T13:52:09;1.30;;;1.17;;
1382;SDS011;685;47.196;11.880;2023-05-07T13:54:36;1.70;;;1.30;;
1382;SDS011;685;47.196;11.880;2023-05-07T13:57:04;2.30;;;1.27;;
1382;SDS011;685;47.196;11.880;2023-05-07T13:59:30;3.73;;;1.20;;
1382;SDS011;685;47.196;11.880;2023-05-07T14:01:59;1.83;;;1.10;;
1382;SDS011;685;47.196;11.880;2023-05-07T14:04:26;1.30;;;1.10;;
1382;SDS011;685;47.196;11.880;2023-05-07T14:06:53;3.30;;;1.30;;
1382;SDS011;685;47.196;11.880;2023-05-07T14:09:20;2.20;;;1.30;;
1382;SDS011;685;47.196;11.880;2023-05-07T14:11:46;1.40;;;1.27;;
1382;SDS011;685;47.196;11.880;2023-05-07T14:14:16;2.30;;;1.10;;
1382;SDS011;685;47.196;11.880;2023-05-07T14:16:43;1.80;;;1.50;;
1382;SDS011;685;47.196;11.880;2023-05-07T14:19:11;2.73;;;1.40;;
1382;SDS011;685;47.196;11.880;2023-05-07T14:21:38;2.03;;;1.47;;
1382;SDS011;685;47.196;11.880;2023-05-07T14:24:06;1.53;;;1.13;;
1382;SDS011;685;47.196;11.880;2023-05-07T14:26:34;1.87;;;1.30;;
1382;SDS011;685;47.196;11.880;2023-05-07T14:29:01;2.00;;;1.40;;
1382;SDS011;685;47.196;11.880;2023-05-07T14:31:28;2.50;;;1.37;;
1382;SDS011;685;47.196;11.880;2023-05-07T14:33:55;1.57;;;1.10;;
1382;SDS011;685;47.196;11.880;2023-05-07T14:36:24;1.80;;;1.40;;
1382;SDS011;685;47.196;11.880;2023-05-07T14:38:52;2.03;;;1.37;;
1382;SDS011;685;47.196;11.880;2023-05-07T14:41:19;2.77;;;1.50;;
1382;SDS011;685;47.196;11.880;2023-05-07T14:43:47;2.17;;;1.20;;
1382;SDS011;685;47.196;11.880;2023-05-07T14:46:15;1.70;;;1.30;;
1382;SDS011;685;47.196;11.880;2023-05-07T14:48:43;2.90;;;1.20;;
1382;SDS011;685;47.196;11.880;2023-05-07T14:51:11;1.60;;;1.03;;
1382;SDS011;685;47.196;11.880;2023-05-07T14:53:40;1.90;;;1.10;;
1382;SDS011;685;47.196;11.880;2023-05-07T14:56:07;1.77;;;1.20;;
1382;SDS011;685;47.196;11.880;2023-05-07T14:58:34;1.50;;;1.00;;
1382;SDS011;685;47.196;11.880;2023-05-07T15:01:02;1.80;;;1.00;;
1382;SDS011;685;47.196;11.880;2023-05-07T15:03:29;1.97;;;1.10;;
1382;SDS011;685;47.196;11.880;2023-05-07T15:05:56;1.77;;;1.40;;
1382;SDS011;685;47.196;11.880;2023-05-07T15:08:23;1.83;;;1.23;;
1382;SDS011;685;47.196;11.880;2023-05-07T15:10:51;5.03;;;1.60;;
1382;SDS011;685;47.196;11.880;2023-05-07T15:13:18;1.60;;;1.07;;
1382;SDS011;685;47.196;11.880;2023-05-07T15:15:45;1.87;;;1.30;;
1382;SDS011;685;47.196;11.880;2023-05-07T15:18:12;2.07;;;1.30;;
1382;SDS011;685;47.196;11.880;2023-05-07T15:20:41;2.30;;;1.30;;
1382;SDS011;685;47.196;11.880;2023-05-07T15:23:08;2.20;;;1.00;;
1382;SDS011;685;47.196;11.880;2023-05-07T15:25:36;1.60;;;1.10;;
1382;SDS011;685;47.196;11.880;2023-05-07T15:28:05;1.40;;;1.20;;
1382;SDS011;685;47.196;11.880;2023-05-07T15:30:32;1.40;;;1.00;;